METAR AND TAF INFORMATION
METAR FOR GMMN
ADDS - METARS form results

(0033 UTC 18 July 2018)
Data provider http://aviationweather.gov/adds/metars/
 
METAR text: GMMN 180030Z 35006KT 9999 BKN008 20/20 Q1016 NOSIG
Conditions at: GMMN (NOUASSEUR/CASABL, MA) observed 0030 UTC 18 July 2018
Temperature: 20.0°C (68°F)
Dewpoint: 20.0°C (68°F) [RH = 100%]
Pressure (altimeter): 30.00 inches Hg (1016.0 mb)
Winds: from the N (350 degrees) at 7 MPH (6 knots; 3.1 m/s)
Visibility: 6 or more miles (10+ km)
Ceiling: 800 feet AGL
Clouds: broken clouds at 800 feet AGL
Weather: no significant weather observed at this time

METAR text: GMMN 180000Z 34007KT 9999 BKN005 20/20 Q1017 NOSIG
Conditions at: GMMN (NOUASSEUR/CASABL, MA) observed 0000 UTC 18 July 2018
Temperature: 20.0°C (68°F)
Dewpoint: 20.0°C (68°F) [RH = 100%]
Pressure (altimeter): 30.03 inches Hg (1017.0 mb)
Winds: from the NNW (340 degrees) at 8 MPH (7 knots; 3.6 m/s)
Visibility: 6 or more miles (10+ km)
Ceiling: 500 feet AGL
Clouds: broken clouds at 500 feet AGL
Weather: no significant weather observed at this time

Forecast for: GMMN (NOUASSEUR/CASABL, MA)
Text: TAF GMMN 172300Z 1800/1906 32004KT CAVOK
Forecast period: 0000 to 1000 UTC 18 July 2018
Forecast type: FROM: standard forecast or significant change
Winds: from the NW (320 degrees) at 5 MPH (4 knots; 2.1 m/s)
Visibility: 6 or more miles (10+ km)
Clouds: not forecast
Weather: NSW  (no significant weather)
Text: PROB30
Forecast period: 0200 to 0800 UTC 18 July 2018
Forecast type: TEMPORARY: The following changes expected for less than half the time period
Winds: variable direction winds at 2 MPH (2 knots; 1.0 m/s)
Visibility: 1.86 miles (2.99 km)
Clouds: scattered clouds at 800 feet AGL
Weather: BR  (mist)
Text: TEMPO 1802/1808 VRB02KT 3000 BR SCT008
Forecast period: 1000 UTC 18 July 2018 to 0600 UTC 19 July 2018
Forecast type: BECOMING: Conditions expected to become as follows by 1200 UTC 18 July 2018
Winds: from the N (360 degrees) at 14 MPH (12 knots; 6.2 m/s)
Visibility: 6 or more miles (10+ km)
Weather: NSW  (no significant weather)

 AIRPORT MAP

 RUNWAY INFORMATION
Runway 17L Runway length 12205 ft Runway width 148 ft
Runway elevation 633 ft Runway displaced threshold 0 ft Runway heading 164
Runway 35R Runway length 12205 ft Runway width 148 ft
Runway elevation 656 ft Runway displaced threshold 0 ft Runway heading 344
Runway 17R Runway length 12205 ft Runway width 148 ft
Runway elevation 636 ft Runway displaced threshold 0 ft Runway heading 164
Runway 35L Runway length 12205 ft Runway width 148 ft
Runway elevation 656 ft Runway displaced threshold 0 ft Runway heading 344

 AIRPORT FREQUENCIES
Type APP Name APP Frequency 121.3 MHZ
Type ATIS Name ATIS Frequency 126.4 MHZ
Type TWR Name TWR Frequency 118.5 MHZ

 AIRPORT NEAR NAVIGATION AIDS
Type VOR-DME Name Casablanca Frequency 114000 KHZ



Air Greece virtual AIrline - All rights reserved 2018 - Powered by Virtual Airlines Manager [v2.6.2]